TimeCST,TemperatureF,Dew PointF,Humidity,Sea Level PressureIn,VisibilityMPH,Wind Direction,Wind SpeedMPH,Gust SpeedMPH,PrecipitationIn,Events,Conditions,WindDirDegrees,DateUTC
12:15 AM,11.1,3.9,73,30.25,10.0,NW,15.0,-,N/A,,Clear,310,2013-02-20 06:15:00
12:35 AM,10.8,3.2,72,30.25,10.0,WNW,17.3,25.3,N/A,,Clear,300,2013-02-20 06:35:00
12:55 AM,10.4,3.4,73,30.26,10.0,NW,13.8,-,N/A,,Clear,310,2013-02-20 06:55:00
1:15 AM,10.2,3.2,73,30.27,10.0,NW,15.0,23.0,N/A,,Clear,310,2013-02-20 07:15:00
1:35 AM,9.9,3.0,74,30.27,10.0,WNW,15.0,-,N/A,,Clear,300,2013-02-20 07:35:00
1:55 AM,9.5,3.0,75,30.29,10.0,WNW,12.7,18.4,N/A,,Clear,300,2013-02-20 07:55:00
2:15 AM,9.1,3.0,76,30.29,10.0,WNW,11.5,16.1,N/A,,Clear,290,2013-02-20 08:15:00
2:35 AM,8.8,2.3,75,30.29,10.0,WNW,13.8,-,N/A,,Clear,300,2013-02-20 08:35:00
2:55 AM,8.6,2.3,76,30.30,10.0,NW,17.3,-,N/A,,Clear,310,2013-02-20 08:55:00
3:15 AM,8.4,2.1,76,30.29,10.0,NW,16.1,-,N/A,,Clear,310,2013-02-20 09:15:00
3:35 AM,8.2,2.1,76,30.30,10.0,NW,13.8,20.7,N/A,,Clear,310,2013-02-20 09:35:00
3:55 AM,8.1,1.8,75,30.30,10.0,WNW,15.0,19.6,N/A,,Clear,300,2013-02-20 09:55:00
4:15 AM,8.1,1.8,75,30.30,10.0,WNW,13.8,-,N/A,,Clear,300,2013-02-20 10:15:00
4:35 AM,8.1,1.4,74,30.31,10.0,NW,13.8,18.4,N/A,,Clear,310,2013-02-20 10:35:00
4:55 AM,8.1,1.4,74,30.30,10.0,NW,15.0,-,N/A,,Clear,310,2013-02-20 10:55:00
5:15 AM,8.1,1.4,74,30.31,10.0,NW,10.4,-,N/A,,Clear,310,2013-02-20 11:15:00
5:35 AM,8.6,1.4,73,30.31,10.0,WNW,11.5,-,N/A,,Clear,300,2013-02-20 11:35:00
5:55 AM,7.7,1.4,75,30.31,10.0,NW,10.4,-,N/A,,Clear,310,2013-02-20 11:55:00
6:15 AM,7.7,1.4,75,30.32,10.0,NW,8.1,-,N/A,,Clear,310,2013-02-20 12:15:00
6:35 AM,7.7,1.2,75,30.33,10.0,WNW,8.1,-,N/A,,Clear,300,2013-02-20 12:35:00
6:55 AM,7.7,1.4,75,30.33,10.0,WNW,8.1,-,N/A,,Clear,300,2013-02-20 12:55:00
7:15 AM,8.2,1.4,74,30.34,10.0,NW,10.4,-,N/A,,Clear,310,2013-02-20 13:15:00
7:35 AM,8.6,1.4,73,30.34,10.0,WNW,11.5,-,N/A,,Clear,300,2013-02-20 13:35:00
7:55 AM,9.9,2.1,71,30.35,10.0,WNW,10.4,-,N/A,,Clear,300,2013-02-20 13:55:00
8:15 AM,10.8,2.8,70,30.36,10.0,WNW,8.1,-,N/A,,Clear,300,2013-02-20 14:15:00
8:35 AM,11.8,3.6,69,30.36,10.0,WNW,9.2,-,N/A,,Clear,300,2013-02-20 14:35:00
8:55 AM,12.4,4.1,69,30.36,10.0,WNW,10.4,-,N/A,,Clear,300,2013-02-20 14:55:00
9:15 AM,13.3,5.0,70,30.36,10.0,WNW,12.7,-,N/A,,Clear,300,2013-02-20 15:15:00
9:35 AM,14.5,5.7,68,30.36,10.0,WNW,10.4,-,N/A,,Clear,300,2013-02-20 15:35:00
9:55 AM,14.9,6.3,69,30.37,10.0,West,11.5,-,N/A,,Clear,280,2013-02-20 15:55:00
10:15 AM,15.3,6.3,68,30.37,10.0,WNW,8.1,-,N/A,,Clear,300,2013-02-20 16:15:00
10:35 AM,15.8,6.8,68,30.37,10.0,WNW,10.4,-,N/A,,Clear,290,2013-02-20 16:35:00
10:55 AM,16.9,8.4,69,30.36,10.0,WNW,9.2,-,N/A,,Clear,300,2013-02-20 16:55:00
11:15 AM,17.6,9.3,70,30.36,10.0,WNW,10.4,-,N/A,,Clear,300,2013-02-20 17:15:00
11:35 AM,18.1,9.5,69,30.35,10.0,WNW,9.2,-,N/A,,Clear,290,2013-02-20 17:35:00
11:55 AM,19.4,10.9,70,30.38,10.0,WNW,6.9,-,N/A,,Scattered Clouds,290,2013-02-20 17:55:00
12:15 PM,20.1,11.3,69,30.38,10.0,WNW,11.5,-,N/A,,Mostly Cloudy,290,2013-02-20 18:15:00
12:35 PM,19.4,11.5,71,30.40,10.0,WNW,11.5,18.4,N/A,,Mostly Cloudy,290,2013-02-20 18:35:00
12:55 PM,19.6,11.7,71,30.38,10.0,West,12.7,-,N/A,,Scattered Clouds,280,2013-02-20 18:55:00
1:15 PM,20.5,12.4,71,30.38,10.0,WNW,15.0,-,N/A,,Scattered Clouds,300,2013-02-20 19:15:00
1:35 PM,21.4,13.5,72,30.36,10.0,WNW,15.0,-,N/A,,Scattered Clouds,300,2013-02-20 19:35:00
1:55 PM,21.0,12.7,70,30.36,10.0,NW,15.0,-,N/A,,Clear,310,2013-02-20 19:55:00
2:15 PM,21.2,12.9,70,30.35,10.0,WNW,13.8,-,N/A,,Clear,290,2013-02-20 20:15:00
2:35 PM,21.2,13.1,71,30.34,10.0,WNW,12.7,18.4,N/A,,Clear,300,2013-02-20 20:35:00
2:55 PM,21.4,13.5,72,30.34,10.0,WNW,12.7,-,N/A,,Scattered Clouds,300,2013-02-20 20:55:00
3:15 PM,21.7,13.5,70,30.33,10.0,WNW,10.4,-,N/A,,Clear,290,2013-02-20 21:15:00
3:35 PM,21.4,13.1,70,30.33,10.0,WNW,11.5,-,N/A,,Clear,300,2013-02-20 21:35:00
3:55 PM,21.7,13.5,70,30.33,10.0,West,10.4,-,N/A,,Clear,280,2013-02-20 21:55:00
4:15 PM,21.7,13.8,72,30.34,10.0,West,10.4,-,N/A,,Clear,280,2013-02-20 22:15:00
4:35 PM,21.7,14.0,72,30.34,10.0,WNW,8.1,-,N/A,,Clear,290,2013-02-20 22:35:00
4:55 PM,21.9,14.2,72,30.34,10.0,WNW,8.1,-,N/A,,Clear,290,2013-02-20 22:55:00
5:15 PM,21.6,13.8,72,30.34,10.0,WNW,5.8,-,N/A,,Clear,290,2013-02-20 23:15:00
5:35 PM,21.2,13.6,73,30.34,10.0,WNW,5.8,-,N/A,,Clear,290,2013-02-20 23:35:00
5:55 PM,21.0,13.5,73,30.35,10.0,West,5.8,-,N/A,,Clear,280,2013-02-20 23:55:00
6:15 PM,20.7,13.8,75,30.36,10.0,WNW,4.6,-,N/A,,Clear,290,2013-02-21 00:15:00
6:35 PM,20.7,14.0,75,30.35,10.0,ENE,6.9,-,N/A,,Clear,70,2013-02-21 00:35:00
6:55 PM,20.3,14.0,77,30.35,10.0,ENE,6.9,-,N/A,,Clear,70,2013-02-21 00:55:00
7:15 PM,20.3,14.5,78,30.35,10.0,NE,8.1,-,N/A,,Clear,50,2013-02-21 01:15:00
7:35 PM,19.8,13.8,78,30.34,10.0,NE,6.9,-,N/A,,Clear,50,2013-02-21 01:35:00
7:55 PM,19.4,13.6,78,30.34,10.0,ENE,6.9,-,N/A,,Clear,60,2013-02-21 01:55:00
8:15 PM,19.4,14.0,80,30.35,10.0,ENE,5.8,-,N/A,,Clear,70,2013-02-21 02:15:00
8:35 PM,18.5,13.5,81,30.35,10.0,ENE,4.6,-,N/A,,Clear,70,2013-02-21 02:35:00
8:55 PM,18.3,13.3,81,30.35,10.0,ENE,4.6,-,N/A,,Clear,70,2013-02-21 02:55:00
9:15 PM,17.6,14.0,86,30.35,10.0,ENE,4.6,-,N/A,,Clear,70,2013-02-21 03:15:00
9:35 PM,18.0,12.9,81,30.35,10.0,ENE,4.6,-,N/A,,Clear,60,2013-02-21 03:35:00
9:55 PM,17.8,13.1,82,30.36,10.0,ENE,3.5,-,N/A,,Clear,60,2013-02-21 03:55:00
10:15 PM,17.6,14.0,86,30.36,10.0,NE,4.6,-,N/A,,Clear,50,2013-02-21 04:15:00
10:35 PM,17.6,14.0,86,30.36,10.0,NE,4.6,-,N/A,,Clear,50,2013-02-21 04:35:00
10:55 PM,17.6,12.7,81,30.36,10.0,NE,4.6,-,N/A,,Clear,50,2013-02-21 04:55:00
11:15 PM,17.6,12.9,82,30.36,10.0,NE,4.6,-,N/A,,Clear,50,2013-02-21 05:15:00
11:35 PM,17.6,12.9,82,30.36,10.0,NE,4.6,-,N/A,,Clear,50,2013-02-21 05:35:00
11:55 PM,17.6,12.9,82,30.36,10.0,Calm,Calm,-,N/A,,Clear,0,2013-02-21 05:55:00